createdAt,value
2018-11-02T00:02:17.048Z,94.84
2018-11-02T00:04:47.062Z,94.69
2018-11-02T00:07:17.298Z,94.37
2018-11-02T00:09:47.154Z,95.18
2018-11-02T00:12:16.279Z,95.31
2018-11-02T00:14:47.679Z,95.15
2018-11-02T00:17:15.934Z,94.66
2018-11-02T00:19:44.113Z,94.37
2018-11-02T00:22:13.508Z,94.62
2018-11-02T00:24:42.297Z,94.55
2018-11-02T00:27:10.456Z,94.88
2018-11-02T00:29:38.587Z,95.39
2018-11-02T00:32:07.465Z,95.06
2018-11-02T00:34:36.090Z,95.37
2018-11-02T00:37:05.720Z,94.39
2018-11-02T00:39:35.070Z,94.91
2018-11-02T00:42:04.913Z,94.48
2018-11-02T00:44:34.730Z,95.24
2018-11-02T00:47:04.824Z,95.32
2018-11-02T00:49:35.356Z,94.91
2018-11-02T00:52:05.125Z,94.36
2018-11-02T00:54:35.728Z,94.89
2018-11-02T00:57:05.572Z,95.05
2018-11-02T00:59:35.847Z,94.49
2018-11-02T01:02:05.515Z,94.17
2018-11-02T01:04:35.787Z,94.60
2018-11-02T01:07:05.897Z,95.03
2018-11-02T01:09:36.277Z,95.24
2018-11-02T01:12:06.352Z,95.69
2018-11-02T01:14:36.286Z,95.18
2018-11-02T01:17:07.406Z,94.94
2018-11-02T01:19:35.538Z,95.47
2018-11-02T01:22:05.182Z,95.47
2018-11-02T01:24:33.628Z,95.58
2018-11-02T01:27:01.769Z,94.88
2018-11-02T01:29:30.706Z,94.70
2018-11-02T01:31:59.016Z,93.96
2018-11-02T01:34:27.301Z,94.39
2018-11-02T01:36:56.357Z,94.42
2018-11-02T01:39:25.590Z,93.94
2018-11-02T01:41:53.734Z,93.89
2018-11-02T01:44:21.899Z,94.12
2018-11-02T01:46:50.069Z,94.72
2018-11-02T01:49:18.240Z,94.30
2018-11-02T01:51:47.226Z,93.54
2018-11-02T01:54:15.350Z,93.75
2018-11-02T01:56:43.726Z,94.09
2018-11-02T01:59:11.877Z,93.39
2018-11-02T02:01:40.015Z,93.57
2018-11-02T02:04:08.768Z,93.66
2018-11-02T02:06:37.041Z,93.70
2018-11-02T02:09:08.138Z,93.37
2018-11-02T02:11:36.335Z,93.63
2018-11-02T02:14:04.750Z,93.80
2018-11-02T02:16:32.899Z,93.97
2018-11-02T02:19:01.106Z,93.84
2018-11-02T02:21:29.234Z,93.92
2018-11-02T02:23:57.371Z,93.91
2018-11-02T02:26:25.531Z,94.57
2018-11-02T02:28:53.669Z,93.49
2018-11-02T02:31:21.790Z,94.48
2018-11-02T02:33:49.950Z,93.64
2018-11-02T02:36:18.104Z,93.57
2018-11-02T02:38:46.261Z,93.74
2018-11-02T02:41:14.397Z,93.40
2018-11-02T02:43:42.538Z,93.17
2018-11-02T02:46:11.186Z,93.27
2018-11-02T02:48:39.336Z,93.14
2018-11-02T02:51:07.528Z,92.34
2018-11-02T02:53:35.726Z,93.32
2018-11-02T02:56:03.873Z,92.41
2018-11-02T02:58:32.067Z,91.62
2018-11-02T03:01:00.225Z,91.31
2018-11-02T03:03:28.416Z,91.46
2018-11-02T03:05:57.086Z,91.14
2018-11-02T03:08:25.233Z,91.21
2018-11-02T03:10:53.592Z,90.43
2018-11-02T03:13:21.623Z,91.53
2018-11-02T03:15:49.762Z,92.11
2018-11-02T03:18:17.919Z,92.08
2018-11-02T03:20:46.056Z,92.05
2018-11-02T03:23:14.208Z,92.20
2018-11-02T03:25:43.093Z,93.05
2018-11-02T03:28:11.237Z,92.46
2018-11-02T03:30:39.382Z,92.59
2018-11-02T03:33:07.510Z,92.92
2018-11-02T03:35:35.671Z,92.57
2018-11-02T03:38:03.807Z,92.95
2018-11-02T03:40:32.027Z,93.21
2018-11-02T03:43:00.205Z,93.71
2018-11-02T03:45:28.321Z,92.92
2018-11-02T03:47:56.513Z,93.87
2018-11-02T03:50:24.738Z,93.53
2018-11-02T03:52:52.859Z,93.13
2018-11-02T03:55:21.067Z,93.50
2018-11-02T03:57:49.186Z,94.40
2018-11-02T04:00:17.329Z,94.50
2018-11-02T04:02:45.473Z,94.21
2018-11-02T04:05:13.688Z,94.42
2018-11-02T04:07:41.836Z,94.55
2018-11-02T04:10:10.782Z,94.87
2018-11-02T04:12:38.972Z,93.98
2018-11-02T04:15:07.238Z,94.90
2018-11-02T04:17:35.402Z,95.09
2018-11-02T04:20:03.527Z,95.19
2018-11-02T04:22:31.680Z,94.59
2018-11-02T04:24:59.830Z,94.37
2018-11-02T04:27:27.990Z,94.35
2018-11-02T04:29:56.910Z,94.09
2018-11-02T04:32:25.091Z,94.34
2018-11-02T04:34:53.286Z,93.54
2018-11-02T04:37:21.464Z,92.96
2018-11-02T04:39:49.602Z,92.99
2018-11-02T04:42:17.767Z,93.51
2018-11-02T04:44:47.680Z,93.73
2018-11-02T04:47:15.866Z,93.62
2018-11-02T04:49:44.015Z,94.55
2018-11-02T04:52:12.235Z,94.48
2018-11-02T04:54:40.395Z,94.21
2018-11-02T04:57:08.522Z,94.49
2018-11-02T04:59:36.805Z,94.24
2018-11-02T05:02:05.151Z,94.39
2018-11-02T05:04:33.302Z,93.97
2018-11-02T05:07:01.495Z,94.47
2018-11-02T05:09:29.635Z,93.99
2018-11-02T05:11:57.893Z,94.00
2018-11-02T05:14:26.026Z,94.45
2018-11-02T05:16:54.801Z,95.11
2018-11-02T05:19:23.361Z,94.97
2018-11-02T05:21:51.505Z,94.28
2018-11-02T05:24:19.723Z,94.98
2018-11-02T05:26:49.374Z,94.99
2018-11-02T05:29:18.989Z,95.19
2018-11-02T05:31:48.818Z,95.22
2018-11-02T05:34:18.633Z,95.53
2018-11-02T05:36:46.870Z,95.47
2018-11-02T05:39:15.391Z,94.99
2018-11-02T05:41:43.845Z,94.91
2018-11-02T05:44:12.274Z,95.42
2018-11-02T05:46:41.111Z,94.88
2018-11-02T05:49:09.250Z,95.26
2018-11-02T05:51:37.408Z,94.77
2018-11-02T05:54:06.610Z,94.97
2018-11-02T05:56:35.162Z,94.88
2018-11-02T05:59:04.518Z,94.70
2018-11-02T06:01:34.863Z,94.55
2018-11-02T06:04:03.506Z,94.83
2018-11-02T06:06:34.226Z,94.45
2018-11-02T06:09:03.948Z,94.65
2018-11-02T06:11:34.394Z,94.63
2018-11-02T06:14:04.713Z,94.14
2018-11-02T06:16:34.228Z,93.44
2018-11-02T06:19:04.919Z,93.99
2018-11-02T06:21:35.634Z,94.26
2018-11-02T06:24:05.098Z,93.91
2018-11-02T06:26:35.815Z,93.87
2018-11-02T06:29:04.325Z,93.32
2018-11-02T06:31:32.554Z,93.87
2018-11-02T06:34:01.666Z,93.99
2018-11-02T06:36:30.178Z,94.53
2018-11-02T06:39:00.402Z,94.72
2018-11-02T06:41:28.735Z,94.18
2018-11-02T06:43:56.879Z,94.20
2018-11-02T06:46:25.017Z,94.47
2018-11-02T06:48:54.137Z,94.64
2018-11-02T06:51:22.275Z,94.64
2018-11-02T06:53:50.508Z,94.79
2018-11-02T06:56:18.701Z,94.64
2018-11-02T06:58:46.902Z,94.41
2018-11-02T07:01:15.156Z,94.16
2018-11-02T07:03:43.330Z,94.32
2018-11-02T07:06:11.485Z,94.57
2018-11-02T07:08:39.727Z,94.42
2018-11-02T07:11:08.311Z,94.77
2018-11-02T07:13:37.131Z,94.48
2018-11-02T07:16:05.638Z,94.33
2018-11-02T07:18:33.901Z,94.19
2018-11-02T07:21:02.091Z,94.78
2018-11-02T07:23:30.230Z,94.60
2018-11-02T07:25:58.509Z,94.91
2018-11-02T07:28:26.674Z,94.37
2018-11-02T07:30:55.743Z,94.61
2018-11-02T07:33:24.274Z,94.66
2018-11-02T07:35:52.493Z,94.14
2018-11-02T07:38:20.752Z,94.56
2018-11-02T07:40:48.995Z,94.17
2018-11-02T07:43:17.146Z,94.18
2018-11-02T07:45:45.323Z,94.48
2018-11-02T07:48:13.498Z,95.03
2018-11-02T07:50:41.690Z,94.97
2018-11-02T07:53:09.894Z,94.58
2018-11-02T07:55:38.045Z,94.95
2018-11-02T07:58:06.351Z,94.96
2018-11-02T08:00:34.494Z,95.07
2018-11-02T08:03:02.687Z,94.94
2018-11-02T08:05:30.963Z,94.83
2018-11-02T08:07:59.094Z,94.74
2018-11-02T08:10:27.886Z,94.82
2018-11-02T08:12:56.055Z,94.78
2018-11-02T08:15:24.201Z,95.28
2018-11-02T08:17:53.211Z,94.79
2018-11-02T08:20:21.391Z,95.07
2018-11-02T08:22:49.611Z,95.17
2018-11-02T08:25:17.882Z,95.43
2018-11-02T08:27:46.126Z,94.83
2018-11-02T08:30:14.284Z,94.44
2018-11-02T08:32:42.497Z,94.53
2018-11-02T08:35:13.778Z,93.72
2018-11-02T08:37:42.297Z,93.81
2018-11-02T08:40:12.198Z,94.37
2018-11-02T08:42:40.489Z,94.42
2018-11-02T08:45:09.274Z,93.60
2018-11-02T08:47:37.570Z,93.93
2018-11-02T08:50:07.042Z,92.78
2018-11-02T08:52:35.291Z,91.61
2018-11-02T08:55:03.490Z,92.86
2018-11-02T08:57:31.684Z,91.87
2018-11-02T08:59:59.841Z,91.99
2018-11-02T09:02:28.534Z,91.92
2018-11-02T09:04:57.226Z,92.71
2018-11-02T09:07:25.485Z,92.59
2018-11-02T09:09:53.894Z,92.15
2018-11-02T09:12:22.058Z,92.15
2018-11-02T09:14:50.258Z,92.42
2018-11-02T09:17:18.435Z,92.71
2018-11-02T09:19:46.628Z,92.30
2018-11-02T09:22:14.847Z,92.94
2018-11-02T09:24:43.004Z,93.04
2018-11-02T09:27:11.217Z,92.79
2018-11-02T09:29:40.586Z,92.53
2018-11-02T09:32:08.763Z,92.42
2018-11-02T09:34:36.910Z,91.75
2018-11-02T09:37:05.382Z,91.80
2018-11-02T09:39:33.529Z,91.04
2018-11-02T09:42:01.668Z,90.66
2018-11-02T09:44:29.863Z,90.50
2018-11-02T09:46:57.989Z,90.33
2018-11-02T09:49:26.189Z,91.75
2018-11-02T09:51:54.406Z,91.76
2018-11-02T09:54:22.514Z,92.01
2018-11-02T09:56:50.681Z,91.82
2018-11-02T09:59:18.907Z,91.77
2018-11-02T10:01:47.067Z,90.56
2018-11-02T10:04:15.581Z,89.79
2018-11-02T10:06:43.750Z,90.63
2018-11-02T10:09:13.050Z,91.32
2018-11-02T10:11:41.065Z,91.10
2018-11-02T10:14:10.271Z,91.04
2018-11-02T10:16:38.454Z,91.42
2018-11-02T10:19:07.037Z,89.71
2018-11-02T10:21:35.256Z,89.46
2018-11-02T10:24:03.523Z,88.92
2018-11-02T10:26:31.541Z,89.33
2018-11-02T10:28:59.733Z,87.97
2018-11-02T10:31:27.903Z,88.87
2018-11-02T10:33:56.042Z,89.94
2018-11-02T10:36:24.275Z,89.44
2018-11-02T10:38:53.162Z,89.09
2018-11-02T10:41:26.419Z,86.76
2018-11-02T10:43:54.617Z,86.24
2018-11-02T10:46:22.883Z,86.62
2018-11-02T10:48:51.072Z,87.81
2018-11-02T10:51:19.229Z,87.87
2018-11-02T10:53:47.362Z,87.72
2018-11-02T10:56:15.596Z,87.80
2018-11-02T10:58:43.758Z,89.00
2018-11-02T11:01:17.387Z,88.21
2018-11-02T11:03:45.543Z,88.41
2018-11-02T11:06:13.813Z,89.36
2018-11-02T11:08:42.028Z,90.27
2018-11-02T11:11:10.391Z,89.38
2018-11-02T11:13:38.841Z,89.15
2018-11-02T11:16:06.772Z,89.06
2018-11-02T11:18:34.962Z,88.82
2018-11-02T11:21:03.125Z,88.10
2018-11-02T11:23:31.355Z,89.23
2018-11-02T11:25:59.514Z,88.97
2018-11-02T11:28:27.783Z,88.44
2018-11-02T11:30:56.038Z,87.64
2018-11-02T11:33:24.718Z,86.82
2018-11-02T11:35:52.883Z,86.19
2018-11-02T11:38:21.050Z,87.54
2018-11-02T11:40:49.302Z,86.68
2018-11-02T11:43:17.465Z,86.68
2018-11-02T11:45:45.683Z,86.28
2018-11-02T11:48:13.891Z,84.54
2018-11-02T11:50:42.143Z,86.11
2018-11-02T11:53:11.115Z,86.59
2018-11-02T11:55:39.267Z,87.40
2018-11-02T11:58:07.486Z,87.97
2018-11-02T12:00:35.714Z,87.57
2018-11-02T12:03:03.867Z,86.29
2018-11-02T12:05:32.015Z,85.47
2018-11-02T12:08:00.202Z,86.07
2018-11-02T12:10:28.513Z,86.53
2018-11-02T12:12:56.652Z,86.00
2018-11-02T12:15:24.828Z,85.47
2018-11-02T12:17:52.990Z,84.03
2018-11-02T12:20:24.381Z,86.04
2018-11-02T12:22:54.290Z,86.02
2018-11-02T12:25:22.440Z,85.86
2018-11-02T12:27:51.976Z,86.42
2018-11-02T12:30:20.418Z,85.68
2018-11-02T12:32:48.794Z,85.19
2018-11-02T12:35:17.866Z,85.03
2018-11-02T12:37:46.626Z,85.37
2018-11-02T12:40:16.040Z,84.84
2018-11-02T12:42:44.836Z,85.37
2018-11-02T12:45:14.635Z,86.02
2018-11-02T12:47:43.333Z,85.47
2018-11-02T12:50:16.111Z,85.53
2018-11-02T12:52:44.924Z,83.01
2018-11-02T12:55:13.699Z,83.37
2018-11-02T12:57:42.272Z,83.60
2018-11-02T13:00:15.358Z,83.00
2018-11-02T13:02:44.462Z,82.12
2018-11-02T13:05:12.722Z,82.26
2018-11-02T13:07:41.006Z,83.66
2018-11-02T13:10:11.537Z,82.97
2018-11-02T13:12:40.547Z,84.54
2018-11-02T13:15:10.855Z,84.56
2018-11-02T13:17:39.521Z,85.33
2018-11-02T13:20:08.228Z,82.84
2018-11-02T13:22:36.582Z,82.85
2018-11-02T13:25:05.726Z,82.50
2018-11-02T13:27:33.868Z,83.67
2018-11-02T13:30:02.140Z,83.52
2018-11-02T13:32:30.610Z,84.95
2018-11-02T13:34:58.792Z,85.26
2018-11-02T13:37:26.938Z,85.31
2018-11-02T13:39:55.203Z,84.84
2018-11-02T13:42:23.410Z,83.47
2018-11-02T13:44:51.558Z,84.81
2018-11-02T13:47:19.724Z,84.75
2018-11-02T13:49:47.891Z,83.86
2018-11-02T13:52:16.164Z,83.96
2018-11-02T13:54:44.394Z,84.47
2018-11-02T13:57:12.550Z,83.94
2018-11-02T13:59:40.717Z,84.49
2018-11-02T14:02:09.757Z,84.08
2018-11-02T14:04:37.955Z,84.94
2018-11-02T14:07:06.149Z,83.96
2018-11-02T14:09:34.378Z,84.19
2018-11-02T14:12:03.455Z,84.61
2018-11-02T14:14:31.731Z,83.66
2018-11-02T14:17:00.375Z,83.84
2018-11-02T14:19:28.797Z,83.61
2018-11-02T14:21:56.955Z,83.15
2018-11-02T14:24:25.763Z,82.81
2018-11-02T14:26:53.931Z,83.91
2018-11-02T14:29:22.127Z,83.23
2018-11-02T14:31:51.076Z,83.19
2018-11-02T14:34:19.255Z,83.91
2018-11-02T14:36:47.423Z,83.90
2018-11-02T14:39:15.655Z,84.36
2018-11-02T14:41:44.600Z,83.92
2018-11-02T14:44:12.783Z,84.00
2018-11-02T14:46:41.485Z,84.68
2018-11-02T14:49:09.555Z,83.73
2018-11-02T14:51:37.809Z,84.01
2018-11-02T14:54:09.146Z,83.44
2018-11-02T14:56:37.331Z,84.92
2018-11-02T14:59:05.487Z,84.15
2018-11-02T15:01:34.158Z,84.74
2018-11-02T15:04:02.337Z,84.21
2018-11-02T15:06:30.482Z,84.17
2018-11-02T15:08:58.672Z,83.75
2018-11-02T15:11:26.929Z,84.13
2018-11-02T15:13:55.160Z,85.15
2018-11-02T15:16:23.358Z,83.83
2018-11-02T15:18:51.535Z,84.60
2018-11-02T15:21:19.793Z,85.73
2018-11-02T15:23:48.053Z,85.27
2018-11-02T15:26:16.243Z,85.46
2018-11-02T15:28:45.011Z,86.48
2018-11-02T15:31:13.195Z,85.48
2018-11-02T15:33:41.389Z,85.38
2018-11-02T15:36:09.565Z,85.77
2018-11-02T15:38:37.787Z,85.46
2018-11-02T15:41:05.969Z,84.59
2018-11-02T15:43:34.141Z,85.07
2018-11-02T15:46:02.318Z,85.12
2018-11-02T15:48:30.543Z,83.86
2018-11-02T15:50:58.792Z,84.20
2018-11-02T15:53:27.141Z,84.40
2018-11-02T15:55:58.511Z,84.51
2018-11-02T15:58:26.692Z,83.78
2018-11-02T16:00:54.854Z,84.74
2018-11-02T16:03:23.014Z,84.60
2018-11-02T16:05:51.174Z,84.09
2018-11-02T16:08:19.352Z,83.34
2018-11-02T16:10:47.538Z,86.08
2018-11-02T16:13:15.820Z,86.17
2018-11-02T16:15:44.009Z,86.42
2018-11-02T16:18:12.159Z,86.62
2018-11-02T16:20:40.351Z,85.79
2018-11-02T16:23:08.911Z,85.51
2018-11-02T16:25:37.171Z,85.91
2018-11-02T16:28:05.383Z,85.75
2018-11-02T16:30:34.034Z,87.38
2018-11-02T16:33:02.222Z,87.23
2018-11-02T16:35:30.362Z,87.51
2018-11-02T16:37:58.582Z,86.83
2018-11-02T16:40:26.745Z,86.98
2018-11-02T16:42:55.335Z,87.09
2018-11-02T16:45:23.490Z,87.89
2018-11-02T16:47:51.678Z,88.29
2018-11-02T16:50:19.826Z,88.46
2018-11-02T16:52:48.030Z,88.52
2018-11-02T16:55:16.169Z,88.78
2018-11-02T16:57:45.311Z,88.48
2018-11-02T17:00:19.118Z,89.11
2018-11-02T17:02:48.307Z,88.50
2018-11-02T17:05:16.928Z,89.13
2018-11-02T17:07:45.092Z,89.02
2018-11-02T17:10:14.380Z,90.19
2018-11-02T17:12:43.069Z,90.14
2018-11-02T17:15:14.400Z,89.86
2018-11-02T17:17:42.666Z,90.28
2018-11-02T17:20:14.753Z,90.82
2018-11-02T17:22:43.030Z,90.59
2018-11-02T17:25:11.978Z,90.09
2018-11-02T17:27:40.357Z,88.34
2018-11-02T17:30:11.201Z,90.07
2018-11-02T17:32:39.488Z,90.26
2018-11-02T17:35:08.006Z,90.47
2018-11-02T17:37:36.533Z,90.04
2018-11-02T17:40:04.947Z,91.15
2018-11-02T17:42:33.134Z,91.38
2018-11-02T17:45:01.358Z,91.33
2018-11-02T17:47:29.553Z,91.34
2018-11-02T17:49:57.671Z,90.11
2018-11-02T17:52:26.078Z,89.37
2018-11-02T17:54:54.233Z,90.39
2018-11-02T17:57:22.965Z,90.83
2018-11-02T17:59:52.832Z,91.99
2018-11-02T18:02:23.533Z,92.00
2018-11-02T18:04:54.098Z,91.60
2018-11-02T18:07:24.162Z,90.58
2018-11-02T18:09:54.414Z,89.59
2018-11-02T18:12:24.399Z,89.91
2018-11-02T18:14:54.246Z,89.83
2018-11-02T18:17:24.802Z,91.53
2018-11-02T18:19:54.715Z,91.71
2018-11-02T18:22:23.001Z,92.63
2018-11-02T18:24:51.012Z,93.25
2018-11-02T18:27:19.171Z,92.78
2018-11-02T18:29:47.394Z,92.37
2018-11-02T18:32:15.594Z,92.53
2018-11-02T18:34:43.809Z,92.12
2018-11-02T18:37:11.885Z,92.48
2018-11-02T18:39:40.038Z,91.61
2018-11-02T18:42:08.188Z,91.33
2018-11-02T18:44:36.883Z,91.45
2018-11-02T18:47:05.150Z,91.74
2018-11-02T18:49:33.327Z,92.70
2018-11-02T18:52:01.596Z,93.27
2018-11-02T18:54:29.774Z,92.70
2018-11-02T18:56:57.902Z,93.16
2018-11-02T18:59:26.089Z,93.56
2018-11-02T19:01:54.256Z,93.98
2018-11-02T19:04:22.401Z,93.38
2018-11-02T19:06:50.666Z,92.46
2018-11-02T19:09:20.050Z,92.29
2018-11-02T19:11:49.893Z,90.55
2018-11-02T19:14:18.371Z,89.83
2018-11-02T19:16:46.690Z,90.60
2018-11-02T19:19:16.051Z,91.94
2018-11-02T19:21:44.344Z,92.88
2018-11-02T19:24:12.356Z,92.76
2018-11-02T19:26:41.418Z,92.81
2018-11-02T19:29:10.335Z,93.27
2018-11-02T19:31:38.475Z,92.92
2018-11-02T19:34:07.127Z,92.67
2018-11-02T19:36:35.294Z,92.70
2018-11-02T19:39:05.114Z,92.84
2018-11-02T19:41:33.367Z,92.38
2018-11-02T19:44:01.530Z,92.02
2018-11-02T19:46:29.670Z,92.42
2018-11-02T19:48:57.889Z,93.07
2018-11-02T19:51:26.100Z,92.23
2018-11-02T19:53:54.262Z,93.07
2018-11-02T19:56:22.443Z,92.16
2018-11-02T19:58:50.598Z,92.15
2018-11-02T20:01:18.751Z,91.50
2018-11-02T20:03:46.934Z,91.87
2018-11-02T20:06:15.090Z,92.61
2018-11-02T20:08:43.238Z,92.82
2018-11-02T20:11:11.423Z,92.32
2018-11-02T20:13:39.570Z,92.01
2018-11-02T20:16:07.820Z,92.62
2018-11-02T20:18:36.773Z,93.36
2018-11-02T20:21:05.173Z,92.76
2018-11-02T20:23:33.366Z,92.74
2018-11-02T20:26:02.118Z,91.51
2018-11-02T20:28:30.296Z,91.69
2018-11-02T20:30:58.512Z,92.27
2018-11-02T20:33:26.703Z,94.10
2018-11-02T20:35:54.901Z,93.95
2018-11-02T20:38:23.059Z,94.51
2018-11-02T20:40:51.262Z,94.62
2018-11-02T20:43:19.414Z,95.81
2018-11-02T20:45:47.578Z,95.26
2018-11-02T20:48:15.800Z,95.56
2018-11-02T20:50:43.946Z,95.14
2018-11-02T20:53:12.106Z,95.51
2018-11-02T20:55:40.251Z,95.00
2018-11-02T20:58:08.503Z,93.90
2018-11-02T21:00:37.677Z,93.64
2018-11-02T21:03:07.270Z,93.81
2018-11-02T21:05:35.769Z,94.05
2018-11-02T21:08:05.040Z,93.52
2018-11-02T21:10:33.086Z,93.17
2018-11-02T21:13:02.033Z,91.73
2018-11-02T21:15:31.670Z,93.02
2018-11-02T21:18:01.679Z,94.28
2018-11-02T21:20:32.090Z,95.04
2018-11-02T21:23:00.908Z,94.56
2018-11-02T21:25:31.415Z,94.27
2018-11-02T21:28:01.872Z,94.18
2018-11-02T21:30:30.091Z,94.36
2018-11-02T21:32:58.251Z,94.26
2018-11-02T21:35:26.459Z,94.04
2018-11-02T21:37:54.641Z,93.60
2018-11-02T21:40:23.997Z,94.03
2018-11-02T21:42:52.253Z,94.03
2018-11-02T21:45:21.473Z,93.88
2018-11-02T21:47:49.636Z,93.60
2018-11-02T21:50:18.059Z,92.56
2018-11-02T21:52:46.223Z,92.48
2018-11-02T21:55:14.377Z,93.24
2018-11-02T21:57:42.561Z,92.42
2018-11-02T22:00:13.187Z,93.04
2018-11-02T22:02:43.818Z,93.19
2018-11-02T22:05:14.045Z,92.63
2018-11-02T22:07:44.882Z,92.37
2018-11-02T22:10:14.392Z,92.58
2018-11-02T22:12:43.839Z,92.52
2018-11-02T22:15:13.775Z,92.74
2018-11-02T22:17:42.502Z,93.06
2018-11-02T22:20:12.923Z,92.99
2018-11-02T22:22:41.427Z,92.77
2018-11-02T22:25:10.375Z,92.81
2018-11-02T22:27:38.534Z,92.41
2018-11-02T22:30:08.926Z,92.71
2018-11-02T22:32:37.078Z,92.46
2018-11-02T22:35:05.519Z,92.45
2018-11-02T22:37:33.755Z,93.03
2018-11-02T22:40:01.920Z,92.67
2018-11-02T22:42:30.849Z,93.71
2018-11-02T22:45:00.738Z,94.45
2018-11-02T22:47:30.262Z,93.91
2018-11-02T22:50:00.123Z,94.02
2018-11-02T22:52:30.341Z,94.60
2018-11-02T22:55:00.398Z,94.62
2018-11-02T22:57:30.252Z,94.52
2018-11-02T22:59:59.900Z,94.75
2018-11-02T23:02:28.045Z,94.24
2018-11-02T23:04:57.829Z,93.84
2018-11-02T23:07:26.913Z,93.88
2018-11-02T23:09:56.353Z,94.05
2018-11-02T23:12:26.726Z,94.38
2018-11-02T23:14:58.148Z,94.26
2018-11-02T23:17:28.243Z,94.37
2018-11-02T23:19:58.065Z,94.27
2018-11-02T23:22:29.442Z,94.01
2018-11-02T23:24:59.999Z,94.77
2018-11-02T23:27:29.473Z,94.51
2018-11-02T23:29:58.786Z,94.06
2018-11-02T23:32:31.869Z,93.53
2018-11-02T23:35:01.568Z,94.35
2018-11-02T23:37:30.803Z,94.71
2018-11-02T23:39:59.746Z,94.48
2018-11-02T23:42:29.785Z,95.17
2018-11-02T23:45:01.202Z,95.18
2018-11-02T23:47:30.950Z,95.29
2018-11-02T23:50:01.066Z,94.70
2018-11-02T23:52:30.995Z,94.27
2018-11-02T23:55:01.577Z,94.20
2018-11-02T23:57:31.667Z,93.94
